Bill Berry (bbr) — WDB8998 — position and weather

sailwx.info

Track history (hours):
 
Tides and Currents Weather Stations Pressure Air Temp Water Temp Dewpoint Dewpoint Depression Visibility Wind Speed Wind Dir Waves Ship Positions

Bill Berry (bbr)

Owner: Ingram Barge Company LLC, Nashville, TN. More information available from US FCC via Universal Licensing System and Coast Guard Vessel Documentation Center.

Last reported at 2018-Apr-04 13:42 UTC. Time now 2018-Apr-20 11:00 UTC.
Position N 39°09' W 090°43'.
Warning: this ship's position is 15 days out of date.

Length 41 m; draft 3 m.

Type: Towing. MMSI: 366967630.

Date/timePositionNaut miles runAvg speedWind from/ knotsBaromVisibWave heightAir tempDewpointWater temp
2018-Apr-04 13:42N 39°09' W 090°43'1 3.0
2018-Apr-04 13:30N 39°09' W 090°43'2 3.2
2018-Apr-04 12:58N 39°07' W 090°42'2 3.6
2018-Apr-04 12:30N 39°06' W 090°41'2 3.3
2018-Apr-04 11:59N 39°04' W 090°42'2 3.3
2018-Apr-04 11:30N 39°03' W 090°43'2 3.5
2018-Apr-04 11:00N 39°01' W 090°42'1 2.6
2018-Apr-04 10:30N 39°00' W 090°41'0 0.2
2018-Apr-04 09:58N 39°00' W 090°41'0 0.0
2018-Apr-04 09:30N 39°00' W 090°41'0 0.0
2018-Apr-04 09:00N 39°00' W 090°41'1 1.7
2018-Apr-04 08:30N 38°59' W 090°41'2 3.3
2018-Apr-04 07:56N 38°58' W 090°40'0 0.0
2018-Apr-04 07:28N 38°58' W 090°40'0 0.0
2018-Apr-04 06:59N 38°58' W 090°40'0 0.0
2018-Apr-04 06:25N 38°58' W 090°40'0 0.0
2018-Apr-04 05:58N 38°58' W 090°40'0 0.0
2018-Apr-04 05:29N 38°58' W 090°40'0 0.1
2018-Apr-04 04:59N 38°57' W 090°40'2 3.6
2018-Apr-04 04:30N 38°56' W 090°40'2 3.7
2018-Apr-04 04:00N 38°54' W 090°38'2 3.7
2018-Apr-04 03:30N 38°53' W 090°37'2 3.5
2018-Apr-04 03:00N 38°52' W 090°35'2 3.8
2018-Apr-04 02:30N 38°52' W 090°33'2 3.6
2018-Apr-04 02:00N 38°54' W 090°31'2 3.7
2018-Apr-04 01:30N 38°55' W 090°30'2 3.5
2018-Apr-04 01:00N 38°57' W 090°29'2 3.6
2018-Apr-04 00:30N 38°57' W 090°27'2 3.7
2018-Apr-04 00:00N 38°58' W 090°24'2 4.0
2018-Apr-03 23:30N 38°57' W 090°22'2 3.9
2018-Apr-03 23:00N 38°56' W 090°20'2 3.8
2018-Apr-03 22:30N 38°55' W 090°17'2 4.1
2018-Apr-03 22:00N 38°55' W 090°15'2 3.7
2018-Apr-03 21:30N 38°54' W 090°13'0 0.9
2018-Apr-03 21:00N 38°54' W 090°12'1 1.6
2018-Apr-03 20:30N 38°53' W 090°12'2 4.2
2018-Apr-03 20:00N 38°52' W 090°09'0 0.8
2018-Apr-03 19:30N 38°52' W 090°09'0 0.5
2018-Apr-03 19:00N 38°52' W 090°09'0 0.5
2018-Apr-03 18:30N 38°52' W 090°08'1 1.1
2018-Apr-03 18:00N 38°52' W 090°08'2 3.8
2018-Apr-03 17:30N 38°50' W 090°07'2 4.6
2018-Apr-03 17:00N 38°48' W 090°07'2 4.0
2018-Apr-03 16:29N 38°46' W 090°08'2 3.9
2018-Apr-03 16:00N 38°44' W 090°09'2 4.0
2018-Apr-03 15:30N 38°42' W 090°11'1 1.1
2018-Apr-03 14:59N 38°42' W 090°11'1 1.8
2018-Apr-03 14:30N 38°41' W 090°11'2 4.2
2018-Apr-03 13:59N 38°39' W 090°11'1 0.4
2018-Apr-03 11:47N 38°38' W 090°11'0 0.0
2018-Apr-03 10:42N 38°38' W 090°11'0 0.1
2018-Apr-03 10:27N 38°38' W 090°11'0 0.0
2018-Apr-03 09:58N 38°38' W 090°11'0 0.0
2018-Apr-03 09:26N 38°38' W 090°11'0 0.0
2018-Apr-03 08:22N 38°38' W 090°11'0 0.6
2018-Apr-03 07:57N 38°38' W 090°11'6 0.9
2018-Apr-03 00:56N 38°32' W 090°15'4 9.2
2018-Apr-03 00:30N 38°36' W 090°12'5 9.9
2018-Apr-03 00:00N 38°40' W 090°11'2 3.4
2018-Apr-02 23:29N 38°42' W 090°11'1 2.3
2018-Apr-02 23:00N 38°43' W 090°10'2 5.1
2018-Apr-02 22:30N 38°45' W 090°09'2 4.6
2018-Apr-02 22:00N 38°47' W 090°07'3 6.9
2018-Apr-02 21:30N 38°51' W 090°07'2 4.8
2018-Apr-02 21:00N 38°52' W 090°09'1 1.1
2018-Apr-02 20:30N 38°52' W 090°10'3 5.8
2018-Apr-02 20:00N 38°54' W 090°13'1 1.9
2018-Apr-02 19:30N 38°55' W 090°14'3 5.7
2018-Apr-02 19:00N 38°55' W 090°17'3 5.8
2018-Apr-02 18:30N 38°56' W 090°21'3 6.0
2018-Apr-02 18:00N 38°58' W 090°24'3 6.3
2018-Apr-02 17:30N 38°57' W 090°28'3 5.8
2018-Apr-02 17:00N 38°55' W 090°31'3 5.5
2018-Apr-02 16:30N 38°53' W 090°32'3 5.3
2018-Apr-02 16:00N 38°52' W 090°36'3 5.1
2018-Apr-02 15:30N 38°54' W 090°38'4 7.0
2018-Apr-02 15:00N 38°57' W 090°40'3 5.6
2018-Apr-02 14:24N 39°00' W 090°41'0 0.1
2018-Apr-02 13:31N 39°00' W 090°41'0 0.5
2018-Apr-02 13:30N 39°00' W 090°41'0 0.5
2018-Apr-02 13:00N 39°00' W 090°42'0 0.6
2018-Apr-02 12:30N 39°01' W 090°42'2 4.6
2018-Apr-02 12:00N 39°03' W 090°43'0 0.0
2018-Apr-02 11:30N 39°03' W 090°43'0 0.0
2018-Apr-02 11:00N 39°03' W 090°43'0 0.0
2018-Apr-02 10:30N 39°03' W 090°43'0 0.0
2018-Apr-02 10:00N 39°03' W 090°43'0 0.0
2018-Apr-02 09:30N 39°03' W 090°43'5 4.1
2018-Apr-02 08:24N 39°07' W 090°42'  
Track history (hours):
 
Tides and Currents Weather Stations Pressure Air Temp Water Temp Dewpoint Dewpoint Depression Visibility Wind Speed Wind Dir Waves Ship Positions

Bill Berry (bbr)

Owner: Ingram Barge Company LLC, Nashville, TN. More information available from US FCC via Universal Licensing System and Coast Guard Vessel Documentation Center.

Last reported at 2018-Apr-04 13:42 UTC. Time now 2018-Apr-20 11:00 UTC.
Position N 39°09' W 090°43'.
Warning: this ship's position is 15 days out of date.

Length 41 m; draft 3 m.

Type: Towing. MMSI: 366967630.

Date/timePositionNaut miles runAvg speedWind from/ knotsBaromVisibWave heightAir tempDewpointWater temp
2018-Apr-04 13:42N 39°09' W 090°43'1 3.0
2018-Apr-04 13:30N 39°09' W 090°43'2 3.2
2018-Apr-04 12:58N 39°07' W 090°42'2 3.6
2018-Apr-04 12:30N 39°06' W 090°41'2 3.3
2018-Apr-04 11:59N 39°04' W 090°42'2 3.3
2018-Apr-04 11:30N 39°03' W 090°43'2 3.5
2018-Apr-04 11:00N 39°01' W 090°42'1 2.6
2018-Apr-04 10:30N 39°00' W 090°41'0 0.2
2018-Apr-04 09:58N 39°00' W 090°41'0 0.0
2018-Apr-04 09:30N 39°00' W 090°41'0 0.0
2018-Apr-04 09:00N 39°00' W 090°41'1 1.7
2018-Apr-04 08:30N 38°59' W 090°41'2 3.3
2018-Apr-04 07:56N 38°58' W 090°40'0 0.0
2018-Apr-04 07:28N 38°58' W 090°40'0 0.0
2018-Apr-04 06:59N 38°58' W 090°40'0 0.0
2018-Apr-04 06:25N 38°58' W 090°40'0 0.0
2018-Apr-04 05:58N 38°58' W 090°40'0 0.0
2018-Apr-04 05:29N 38°58' W 090°40'0 0.1
2018-Apr-04 04:59N 38°57' W 090°40'2 3.6
2018-Apr-04 04:30N 38°56' W 090°40'2 3.7
2018-Apr-04 04:00N 38°54' W 090°38'2 3.7
2018-Apr-04 03:30N 38°53' W 090°37'2 3.5
2018-Apr-04 03:00N 38°52' W 090°35'2 3.8
2018-Apr-04 02:30N 38°52' W 090°33'2 3.6
2018-Apr-04 02:00N 38°54' W 090°31'2 3.7
2018-Apr-04 01:30N 38°55' W 090°30'2 3.5
2018-Apr-04 01:00N 38°57' W 090°29'2 3.6
2018-Apr-04 00:30N 38°57' W 090°27'2 3.7
2018-Apr-04 00:00N 38°58' W 090°24'2 4.0
2018-Apr-03 23:30N 38°57' W 090°22'2 3.9
2018-Apr-03 23:00N 38°56' W 090°20'2 3.8
2018-Apr-03 22:30N 38°55' W 090°17'2 4.1
2018-Apr-03 22:00N 38°55' W 090°15'2 3.7
2018-Apr-03 21:30N 38°54' W 090°13'0 0.9
2018-Apr-03 21:00N 38°54' W 090°12'1 1.6
2018-Apr-03 20:30N 38°53' W 090°12'2 4.2
2018-Apr-03 20:00N 38°52' W 090°09'0 0.8
2018-Apr-03 19:30N 38°52' W 090°09'0 0.5
2018-Apr-03 19:00N 38°52' W 090°09'0 0.5
2018-Apr-03 18:30N 38°52' W 090°08'1 1.1
2018-Apr-03 18:00N 38°52' W 090°08'2 3.8
2018-Apr-03 17:30N 38°50' W 090°07'2 4.6
2018-Apr-03 17:00N 38°48' W 090°07'2 4.0
2018-Apr-03 16:29N 38°46' W 090°08'2 3.9
2018-Apr-03 16:00N 38°44' W 090°09'2 4.0
2018-Apr-03 15:30N 38°42' W 090°11'1 1.1
2018-Apr-03 14:59N 38°42' W 090°11'1 1.8
2018-Apr-03 14:30N 38°41' W 090°11'2 4.2
2018-Apr-03 13:59N 38°39' W 090°11'1 0.4
2018-Apr-03 11:47N 38°38' W 090°11'0 0.0
2018-Apr-03 10:42N 38°38' W 090°11'0 0.1
2018-Apr-03 10:27N 38°38' W 090°11'0 0.0
2018-Apr-03 09:58N 38°38' W 090°11'0 0.0
2018-Apr-03 09:26N 38°38' W 090°11'0 0.0
2018-Apr-03 08:22N 38°38' W 090°11'0 0.6
2018-Apr-03 07:57N 38°38' W 090°11'6 0.9
2018-Apr-03 00:56N 38°32' W 090°15'4 9.2
2018-Apr-03 00:30N 38°36' W 090°12'5 9.9
2018-Apr-03 00:00N 38°40' W 090°11'2 3.4
2018-Apr-02 23:29N 38°42' W 090°11'1 2.3
2018-Apr-02 23:00N 38°43' W 090°10'2 5.1
2018-Apr-02 22:30N 38°45' W 090°09'2 4.6
2018-Apr-02 22:00N 38°47' W 090°07'3 6.9
2018-Apr-02 21:30N 38°51' W 090°07'2 4.8
2018-Apr-02 21:00N 38°52' W 090°09'1 1.1
2018-Apr-02 20:30N 38°52' W 090°10'3 5.8
2018-Apr-02 20:00N 38°54' W 090°13'1 1.9
2018-Apr-02 19:30N 38°55' W 090°14'3 5.7
2018-Apr-02 19:00N 38°55' W 090°17'3 5.8
2018-Apr-02 18:30N 38°56' W 090°21'3 6.0
2018-Apr-02 18:00N 38°58' W 090°24'3 6.3
2018-Apr-02 17:30N 38°57' W 090°28'3 5.8
2018-Apr-02 17:00N 38°55' W 090°31'3 5.5
2018-Apr-02 16:30N 38°53' W 090°32'3 5.3
2018-Apr-02 16:00N 38°52' W 090°36'3 5.1
2018-Apr-02 15:30N 38°54' W 090°38'4 7.0
2018-Apr-02 15:00N 38°57' W 090°40'3 5.6
2018-Apr-02 14:24N 39°00' W 090°41'0 0.1
2018-Apr-02 13:31N 39°00' W 090°41'0 0.5
2018-Apr-02 13:30N 39°00' W 090°41'0 0.5
2018-Apr-02 13:00N 39°00' W 090°42'0 0.6
2018-Apr-02 12:30N 39°01' W 090°42'2 4.6
2018-Apr-02 12:00N 39°03' W 090°43'0 0.0
2018-Apr-02 11:30N 39°03' W 090°43'0 0.0
2018-Apr-02 11:00N 39°03' W 090°43'0 0.0
2018-Apr-02 10:30N 39°03' W 090°43'0 0.0
2018-Apr-02 10:00N 39°03' W 090°43'0 0.0
2018-Apr-02 09:30N 39°03' W 090°43'5 4.1
2018-Apr-02 08:24N 39°07' W 090°42'  

Dump ship's entire track history